sensor_id;sensor_type;location;lat;lon;timestamp;pressure;altitude;pressure_sealevel;temperature;humidity
25855;BME280;13680;49.936;11.344;2023-12-22T00:00:26;94852.91;;;4.47;85.36
25855;BME280;13680;49.936;11.344;2023-12-22T00:02:51;94853.31;;;4.32;86.24
25855;BME280;13680;49.936;11.344;2023-12-22T00:05:16;94860.50;;;4.31;86.26
25855;BME280;13680;49.936;11.344;2023-12-22T00:07:42;94848.06;;;4.49;84.98
25855;BME280;13680;49.936;11.344;2023-12-22T00:10:07;94856.56;;;4.29;85.23
25855;BME280;13680;49.936;11.344;2023-12-22T00:12:34;94854.63;;;4.43;84.93
25855;BME280;13680;49.936;11.344;2023-12-22T00:14:59;94864.13;;;4.35;84.78
25855;BME280;13680;49.936;11.344;2023-12-22T00:17:25;94872.84;;;4.27;84.93
25855;BME280;13680;49.936;11.344;2023-12-22T00:19:50;94879.88;;;4.23;85.05
25855;BME280;13680;49.936;11.344;2023-12-22T00:22:15;94894.03;;;4.09;85.74
25855;BME280;13680;49.936;11.344;2023-12-22T00:24:40;94895.66;;;4.19;85.22
25855;BME280;13680;49.936;11.344;2023-12-22T00:27:06;94900.66;;;4.21;84.97
25855;BME280;13680;49.936;11.344;2023-12-22T00:29:31;94893.72;;;4.42;84.46
25855;BME280;13680;49.936;11.344;2023-12-22T00:31:59;94904.38;;;4.74;82.97
25855;BME280;13680;49.936;11.344;2023-12-22T00:34:24;94908.09;;;4.33;83.97
25855;BME280;13680;49.936;11.344;2023-12-22T00:36:50;94913.19;;;4.20;84.94
25855;BME280;13680;49.936;11.344;2023-12-22T00:39:15;94914.63;;;4.26;84.32
25855;BME280;13680;49.936;11.344;2023-12-22T00:41:40;94908.50;;;4.26;84.61
25855;BME280;13680;49.936;11.344;2023-12-22T00:44:06;94902.34;;;4.39;83.36
25855;BME280;13680;49.936;11.344;2023-12-22T00:46:31;94898.78;;;4.44;83.43
25855;BME280;13680;49.936;11.344;2023-12-22T00:48:57;94899.53;;;4.45;83.61
25855;BME280;13680;49.936;11.344;2023-12-22T00:51:22;94889.53;;;4.50;82.63
25855;BME280;13680;49.936;11.344;2023-12-22T00:53:47;94907.81;;;4.12;83.51
25855;BME280;13680;49.936;11.344;2023-12-22T00:56:13;94893.72;;;4.34;83.53
25855;BME280;13680;49.936;11.344;2023-12-22T00:58:39;94895.69;;;4.28;83.87
25855;BME280;13680;49.936;11.344;2023-12-22T01:01:05;94890.31;;;4.19;84.27
25855;BME280;13680;49.936;11.344;2023-12-22T01:03:30;94896.13;;;4.21;83.97
25855;BME280;13680;49.936;11.344;2023-12-22T01:05:55;94900.44;;;4.40;83.43
25855;BME280;13680;49.936;11.344;2023-12-22T01:08:21;94901.91;;;4.46;83.13
25855;BME280;13680;49.936;11.344;2023-12-22T01:10:46;94901.38;;;4.35;83.57
25855;BME280;13680;49.936;11.344;2023-12-22T01:13:11;94907.28;;;4.32;84.31
25855;BME280;13680;49.936;11.344;2023-12-22T01:15:36;94904.00;;;4.58;82.68
25855;BME280;13680;49.936;11.344;2023-12-22T01:18:02;94911.66;;;4.05;84.27
25855;BME280;13680;49.936;11.344;2023-12-22T01:20:27;94908.88;;;4.33;83.97
25855;BME280;13680;49.936;11.344;2023-12-22T01:22:52;94905.81;;;4.49;83.86
25855;BME280;13680;49.936;11.344;2023-12-22T01:25:18;94918.41;;;4.57;83.75
25855;BME280;13680;49.936;11.344;2023-12-22T01:27:43;94911.88;;;4.72;82.91
25855;BME280;13680;49.936;11.344;2023-12-22T01:30:08;94910.63;;;4.38;83.94
25855;BME280;13680;49.936;11.344;2023-12-22T01:32:34;94914.81;;;4.62;83.99
25855;BME280;13680;49.936;11.344;2023-12-22T01:35:02;94920.25;;;4.25;84.68
25855;BME280;13680;49.936;11.344;2023-12-22T01:37:32;94912.69;;;4.18;86.16
25855;BME280;13680;49.936;11.344;2023-12-22T01:39:57;94910.34;;;4.80;83.74
25855;BME280;13680;49.936;11.344;2023-12-22T01:42:23;94904.47;;;4.60;84.33
25855;BME280;13680;49.936;11.344;2023-12-22T01:44:48;94922.47;;;4.54;85.04
25855;BME280;13680;49.936;11.344;2023-12-22T01:47:14;94925.31;;;4.58;84.12
25855;BME280;13680;49.936;11.344;2023-12-22T01:49:40;94920.53;;;4.46;85.34
25855;BME280;13680;49.936;11.344;2023-12-22T01:52:05;94924.25;;;4.14;86.68
25855;BME280;13680;49.936;11.344;2023-12-22T01:54:31;94939.41;;;4.36;86.40
25855;BME280;13680;49.936;11.344;2023-12-22T01:56:57;94929.31;;;4.55;85.38
25855;BME280;13680;49.936;11.344;2023-12-22T01:59:23;94922.31;;;4.59;85.42
25855;BME280;13680;49.936;11.344;2023-12-22T02:01:48;94916.91;;;4.42;86.50
25855;BME280;13680;49.936;11.344;2023-12-22T02:04:14;94926.94;;;4.77;84.73
25855;BME280;13680;49.936;11.344;2023-12-22T02:06:40;94915.25;;;4.55;84.61
25855;BME280;13680;49.936;11.344;2023-12-22T02:09:06;94933.63;;;4.65;86.37
25855;BME280;13680;49.936;11.344;2023-12-22T02:11:31;94921.31;;;4.47;85.16
25855;BME280;13680;49.936;11.344;2023-12-22T02:13:57;94942.63;;;4.47;86.22
25855;BME280;13680;49.936;11.344;2023-12-22T02:16:50;94901.72;;;4.42;86.40
25855;BME280;13680;49.936;11.344;2023-12-22T02:19:40;94902.78;;;4.33;87.41
25855;BME280;13680;49.936;11.344;2023-12-22T02:22:08;94898.47;;;4.46;86.96
25855;BME280;13680;49.936;11.344;2023-12-22T02:24:34;94904.44;;;4.20;88.29
25855;BME280;13680;49.936;11.344;2023-12-22T02:27:05;94886.19;;;4.36;87.79
25855;BME280;13680;49.936;11.344;2023-12-22T02:29:36;94892.88;;;4.56;86.92
25855;BME280;13680;49.936;11.344;2023-12-22T02:32:07;94894.88;;;4.50;86.98
25855;BME280;13680;49.936;11.344;2023-12-22T02:34:36;94913.31;;;4.15;88.44
25855;BME280;13680;49.936;11.344;2023-12-22T02:37:05;94932.06;;;4.10;88.41
25855;BME280;13680;49.936;11.344;2023-12-22T02:39:33;94931.81;;;4.20;88.18
25855;BME280;13680;49.936;11.344;2023-12-22T02:42:00;94911.16;;;4.26;87.82
25855;BME280;13680;49.936;11.344;2023-12-22T02:44:26;94899.38;;;4.09;88.88
25855;BME280;13680;49.936;11.344;2023-12-22T02:46:52;94882.13;;;4.38;86.60
25855;BME280;13680;49.936;11.344;2023-12-22T02:49:17;94903.25;;;4.35;86.38
25855;BME280;13680;49.936;11.344;2023-12-22T02:51:44;94871.19;;;4.08;87.60
25855;BME280;13680;49.936;11.344;2023-12-22T02:54:09;94881.19;;;4.34;85.92
25855;BME280;13680;49.936;11.344;2023-12-22T02:56:35;94897.53;;;4.19;86.81
25855;BME280;13680;49.936;11.344;2023-12-22T02:59:00;94908.75;;;4.16;87.81
25855;BME280;13680;49.936;11.344;2023-12-22T03:01:25;94910.34;;;4.80;84.83
25855;BME280;13680;49.936;11.344;2023-12-22T03:03:50;94901.03;;;4.28;86.23
25855;BME280;13680;49.936;11.344;2023-12-22T03:06:16;94925.59;;;4.56;86.08
25855;BME280;13680;49.936;11.344;2023-12-22T03:08:41;94932.16;;;4.59;85.82
25855;BME280;13680;49.936;11.344;2023-12-22T03:11:06;94908.97;;;4.51;85.10
25855;BME280;13680;49.936;11.344;2023-12-22T03:13:32;94916.16;;;4.19;86.20
25855;BME280;13680;49.936;11.344;2023-12-22T03:15:57;94920.69;;;4.50;85.35
25855;BME280;13680;49.936;11.344;2023-12-22T03:18:22;94916.75;;;4.16;85.97
25855;BME280;13680;49.936;11.344;2023-12-22T03:20:47;94897.09;;;4.03;86.52
25855;BME280;13680;49.936;11.344;2023-12-22T03:23:13;94886.53;;;3.89;87.65
25855;BME280;13680;49.936;11.344;2023-12-22T03:25:38;94913.44;;;4.10;87.54
25855;BME280;13680;49.936;11.344;2023-12-22T03:28:04;94921.06;;;4.57;84.93
25855;BME280;13680;49.936;11.344;2023-12-22T03:30:29;94925.72;;;4.51;84.79
25855;BME280;13680;49.936;11.344;2023-12-22T03:32:54;94912.94;;;4.08;86.27
25855;BME280;13680;49.936;11.344;2023-12-22T03:35:19;94902.78;;;4.33;85.67
25855;BME280;13680;49.936;11.344;2023-12-22T03:37:45;94904.09;;;4.44;85.39
25855;BME280;13680;49.936;11.344;2023-12-22T03:40:10;94893.72;;;4.34;85.10
25855;BME280;13680;49.936;11.344;2023-12-22T03:42:36;94890.13;;;4.38;84.17
25855;BME280;13680;49.936;11.344;2023-12-22T03:45:01;94901.97;;;4.32;84.53
25855;BME280;13680;49.936;11.344;2023-12-22T03:47:27;94896.84;;;4.36;84.08
25855;BME280;13680;49.936;11.344;2023-12-22T03:49:52;94900.81;;;3.93;86.50
25855;BME280;13680;49.936;11.344;2023-12-22T03:52:17;94897.28;;;4.29;84.61
25855;BME280;13680;49.936;11.344;2023-12-22T03:54:43;94904.31;;;4.02;85.05
25855;BME280;13680;49.936;11.344;2023-12-22T03:57:08;94900.19;;;3.96;85.19
25855;BME280;13680;49.936;11.344;2023-12-22T03:59:33;94912.34;;;3.88;85.96
25855;BME280;13680;49.936;11.344;2023-12-22T04:01:59;94923.44;;;4.13;85.16
25855;BME280;13680;49.936;11.344;2023-12-22T04:04:26;94904.97;;;4.08;84.93
25855;BME280;13680;49.936;11.344;2023-12-22T04:06:53;94915.00;;;4.11;84.93
25855;BME280;13680;49.936;11.344;2023-12-22T04:09:19;94907.91;;;4.29;84.34
25855;BME280;13680;49.936;11.344;2023-12-22T04:11:44;94893.88;;;4.37;83.88
25855;BME280;13680;49.936;11.344;2023-12-22T04:14:09;94899.56;;;3.90;85.14
25855;BME280;13680;49.936;11.344;2023-12-22T04:16:38;94918.25;;;4.31;83.98
25855;BME280;13680;49.936;11.344;2023-12-22T04:19:03;94924.56;;;4.12;84.64
25855;BME280;13680;49.936;11.344;2023-12-22T04:21:28;94929.28;;;4.15;83.38
25855;BME280;13680;49.936;11.344;2023-12-22T04:23:54;94932.38;;;4.08;84.13
25855;BME280;13680;49.936;11.344;2023-12-22T04:26:19;94936.00;;;3.76;86.07
25855;BME280;13680;49.936;11.344;2023-12-22T04:28:44;94942.47;;;3.61;86.73
25855;BME280;13680;49.936;11.344;2023-12-22T04:31:09;94909.13;;;3.77;85.43
25855;BME280;13680;49.936;11.344;2023-12-22T04:33:35;94919.56;;;3.88;85.53
25855;BME280;13680;49.936;11.344;2023-12-22T04:36:00;94922.44;;;4.00;84.31
25855;BME280;13680;49.936;11.344;2023-12-22T04:38:25;94910.16;;;4.13;83.96
25855;BME280;13680;49.936;11.344;2023-12-22T04:40:51;94925.59;;;4.02;83.67
25855;BME280;13680;49.936;11.344;2023-12-22T04:43:16;94913.13;;;4.12;83.33
25855;BME280;13680;49.936;11.344;2023-12-22T04:45:41;94916.78;;;3.93;84.61
25855;BME280;13680;49.936;11.344;2023-12-22T04:48:07;94925.25;;;3.81;84.79
25855;BME280;13680;49.936;11.344;2023-12-22T04:50:32;94948.84;;;3.97;84.77
25855;BME280;13680;49.936;11.344;2023-12-22T04:52:57;94965.59;;;3.97;84.19
25855;BME280;13680;49.936;11.344;2023-12-22T04:55:23;94961.16;;;3.92;84.01
25855;BME280;13680;49.936;11.344;2023-12-22T04:57:48;94965.78;;;4.23;83.06
25855;BME280;13680;49.936;11.344;2023-12-22T05:00:14;94967.22;;;3.84;84.51
25855;BME280;13680;49.936;11.344;2023-12-22T05:02:39;94958.88;;;4.00;83.63
25855;BME280;13680;49.936;11.344;2023-12-22T05:05:05;94967.59;;;3.77;84.06
25855;BME280;13680;49.936;11.344;2023-12-22T05:07:30;94959.59;;;4.14;82.79
25855;BME280;13680;49.936;11.344;2023-12-22T05:09:55;94979.50;;;4.17;82.00
25855;BME280;13680;49.936;11.344;2023-12-22T05:12:20;94966.31;;;4.12;82.97
25855;BME280;13680;49.936;11.344;2023-12-22T05:14:46;94977.69;;;4.03;82.81
25855;BME280;13680;49.936;11.344;2023-12-22T05:17:11;94968.03;;;4.07;82.50
25855;BME280;13680;49.936;11.344;2023-12-22T05:19:37;94969.75;;;3.89;83.29
25855;BME280;13680;49.936;11.344;2023-12-22T05:22:03;94980.50;;;3.84;83.90
25855;BME280;13680;49.936;11.344;2023-12-22T05:24:28;94981.75;;;4.01;82.00
25855;BME280;13680;49.936;11.344;2023-12-22T05:26:54;94977.09;;;3.56;84.52
25855;BME280;13680;49.936;11.344;2023-12-22T05:29:19;94989.63;;;3.55;85.07
25855;BME280;13680;49.936;11.344;2023-12-22T05:31:45;94976.13;;;3.52;85.64
25855;BME280;13680;49.936;11.344;2023-12-22T05:34:10;94969.06;;;3.61;84.64
25855;BME280;13680;49.936;11.344;2023-12-22T05:36:35;94974.38;;;3.61;85.38
25855;BME280;13680;49.936;11.344;2023-12-22T05:39:01;94976.13;;;3.52;84.39
25855;BME280;13680;49.936;11.344;2023-12-22T05:41:26;94991.66;;;3.72;84.63
25855;BME280;13680;49.936;11.344;2023-12-22T05:43:51;94981.16;;;3.90;83.32
25855;BME280;13680;49.936;11.344;2023-12-22T05:46:17;94995.72;;;4.52;81.27
25855;BME280;13680;49.936;11.344;2023-12-22T05:48:43;94983.47;;;4.05;82.54
25855;BME280;13680;49.936;11.344;2023-12-22T05:51:08;94984.50;;;3.96;82.62
25855;BME280;13680;49.936;11.344;2023-12-22T05:53:41;94988.97;;;3.72;83.80
25855;BME280;13680;49.936;11.344;2023-12-22T05:56:22;94982.91;;;4.08;83.10
25855;BME280;13680;49.936;11.344;2023-12-22T05:58:49;94993.53;;;4.08;82.75
25855;BME280;13680;49.936;11.344;2023-12-22T06:01:16;94986.25;;;4.00;82.86
25855;BME280;13680;49.936;11.344;2023-12-22T06:03:44;94992.88;;;3.89;84.03
25855;BME280;13680;49.936;11.344;2023-12-22T06:06:09;94981.91;;;4.04;83.40
25855;BME280;13680;49.936;11.344;2023-12-22T06:08:34;94977.88;;;3.70;84.82
25855;BME280;13680;49.936;11.344;2023-12-22T06:10:59;94979.19;;;3.59;85.70
25855;BME280;13680;49.936;11.344;2023-12-22T06:13:25;94995.97;;;3.82;84.17
25855;BME280;13680;49.936;11.344;2023-12-22T06:15:50;94985.66;;;3.67;85.51
25855;BME280;13680;49.936;11.344;2023-12-22T06:18:15;95011.38;;;3.43;85.93
25855;BME280;13680;49.936;11.344;2023-12-22T06:20:41;95010.47;;;3.62;85.56
25855;BME280;13680;49.936;11.344;2023-12-22T06:23:06;95019.06;;;3.45;86.04
25855;BME280;13680;49.936;11.344;2023-12-22T06:25:31;95024.88;;;3.47;85.87
25855;BME280;13680;49.936;11.344;2023-12-22T06:27:56;95022.69;;;3.49;85.50
25855;BME280;13680;49.936;11.344;2023-12-22T06:30:22;95018.53;;;3.71;85.19
25855;BME280;13680;49.936;11.344;2023-12-22T06:32:47;95015.13;;;3.56;85.02
25855;BME280;13680;49.936;11.344;2023-12-22T06:35:13;95018.72;;;3.74;85.13
25855;BME280;13680;49.936;11.344;2023-12-22T06:37:38;95019.81;;;3.73;84.34
25855;BME280;13680;49.936;11.344;2023-12-22T06:40:04;95012.53;;;3.79;82.78
25855;BME280;13680;49.936;11.344;2023-12-22T06:42:30;95013.63;;;3.64;83.04
25855;BME280;13680;49.936;11.344;2023-12-22T06:44:55;95019.56;;;3.33;84.85
25855;BME280;13680;49.936;11.344;2023-12-22T06:47:21;95020.03;;;3.63;84.29
25855;BME280;13680;49.936;11.344;2023-12-22T06:49:46;95021.41;;;3.47;83.53
25855;BME280;13680;49.936;11.344;2023-12-22T06:52:11;95022.00;;;3.43;84.42
25855;BME280;13680;49.936;11.344;2023-12-22T06:54:36;95018.72;;;3.74;82.29
25855;BME280;13680;49.936;11.344;2023-12-22T06:57:02;95031.06;;;3.56;82.77
25855;BME280;13680;49.936;11.344;2023-12-22T06:59:27;95024.97;;;3.28;84.64
25855;BME280;13680;49.936;11.344;2023-12-22T07:01:53;95026.69;;;3.74;82.16
25855;BME280;13680;49.936;11.344;2023-12-22T07:04:18;95041.19;;;3.54;83.65
25855;BME280;13680;49.936;11.344;2023-12-22T07:06:44;95023.19;;;3.51;83.50
25855;BME280;13680;49.936;11.344;2023-12-22T07:11:48;95014.50;;;3.73;83.47
25855;BME280;13680;49.936;11.344;2023-12-22T07:14:15;95036.84;;;3.72;84.32
25855;BME280;13680;49.936;11.344;2023-12-22T07:16:40;95026.47;;;3.85;83.96
25855;BME280;13680;49.936;11.344;2023-12-22T07:19:07;95056.25;;;3.59;85.34
25855;BME280;13680;49.936;11.344;2023-12-22T07:21:32;95059.31;;;3.24;88.75
25855;BME280;13680;49.936;11.344;2023-12-22T07:23:59;95057.44;;;3.39;88.82
25855;BME280;13680;49.936;11.344;2023-12-22T07:26:24;95069.53;;;3.45;89.41
25855;BME280;13680;49.936;11.344;2023-12-22T07:28:52;95078.66;;;3.25;90.42
25855;BME280;13680;49.936;11.344;2023-12-22T07:31:17;95071.41;;;3.44;90.27
25855;BME280;13680;49.936;11.344;2023-12-22T07:33:43;95068.66;;;3.50;88.88
25855;BME280;13680;49.936;11.344;2023-12-22T07:36:08;95070.03;;;3.61;89.10
25855;BME280;13680;49.936;11.344;2023-12-22T07:38:34;95074.75;;;3.78;88.69
25855;BME280;13680;49.936;11.344;2023-12-22T07:40:59;95090.31;;;3.71;88.84
25855;BME280;13680;49.936;11.344;2023-12-22T07:43:25;95090.78;;;3.31;90.34
25855;BME280;13680;49.936;11.344;2023-12-22T07:45:52;95106.84;;;3.54;89.63
25855;BME280;13680;49.936;11.344;2023-12-22T07:48:17;95110.97;;;3.60;89.73
25855;BME280;13680;49.936;11.344;2023-12-22T07:50:43;95111.56;;;3.57;90.02
25855;BME280;13680;49.936;11.344;2023-12-22T07:53:08;95112.25;;;3.63;89.83
25855;BME280;13680;49.936;11.344;2023-12-22T07:55:40;95096.78;;;3.65;89.52
25855;BME280;13680;49.936;11.344;2023-12-22T07:58:06;95119.63;;;3.93;88.64
25855;BME280;13680;49.936;11.344;2023-12-22T08:00:32;95108.91;;;3.57;90.77
25855;BME280;13680;49.936;11.344;2023-12-22T08:02:57;95114.13;;;3.62;91.18
25855;BME280;13680;49.936;11.344;2023-12-22T08:05:22;95131.44;;;3.59;91.91
25855;BME280;13680;49.936;11.344;2023-12-22T08:07:48;95134.00;;;3.65;91.46
25855;BME280;13680;49.936;11.344;2023-12-22T08:10:13;95127.81;;;3.55;91.55
25855;BME280;13680;49.936;11.344;2023-12-22T08:12:38;95135.69;;;3.60;91.04
25855;BME280;13680;49.936;11.344;2023-12-22T08:15:04;95155.84;;;3.48;90.58
25855;BME280;13680;49.936;11.344;2023-12-22T08:17:29;95139.03;;;3.80;90.23
25855;BME280;13680;49.936;11.344;2023-12-22T08:19:55;95148.88;;;4.07;88.33
25855;BME280;13680;49.936;11.344;2023-12-22T08:22:21;95125.16;;;3.69;89.64
25855;BME280;13680;49.936;11.344;2023-12-22T08:24:47;95135.19;;;4.00;89.60
25855;BME280;13680;49.936;11.344;2023-12-22T08:27:13;95126.03;;;3.79;89.85
25855;BME280;13680;49.936;11.344;2023-12-22T08:29:38;95131.94;;;4.03;89.04
25855;BME280;13680;49.936;11.344;2023-12-22T08:32:04;95131.34;;;3.79;88.53
25855;BME280;13680;49.936;11.344;2023-12-22T08:34:29;95155.47;;;3.96;88.18
25855;BME280;13680;49.936;11.344;2023-12-22T08:36:54;95158.09;;;4.38;86.28
25855;BME280;13680;49.936;11.344;2023-12-22T08:39:20;95165.88;;;4.34;87.36
25855;BME280;13680;49.936;11.344;2023-12-22T08:41:49;95159.69;;;4.62;86.01
25855;BME280;13680;49.936;11.344;2023-12-22T08:44:15;95154.91;;;4.50;86.00
25855;BME280;13680;49.936;11.344;2023-12-22T08:46:40;95162.69;;;4.46;84.63
25855;BME280;13680;49.936;11.344;2023-12-22T08:49:06;95171.41;;;4.74;84.44
25855;BME280;13680;49.936;11.344;2023-12-22T08:51:31;95181.13;;;4.42;85.62
25855;BME280;13680;49.936;11.344;2023-12-22T08:53:58;95183.53;;;4.30;85.21
25855;BME280;13680;49.936;11.344;2023-12-22T08:56:24;95184.28;;;4.45;85.65
25855;BME280;13680;49.936;11.344;2023-12-22T08:58:53;95195.59;;;4.64;85.17
25855;BME280;13680;49.936;11.344;2023-12-22T09:01:21;95194.84;;;4.50;84.67
25855;BME280;13680;49.936;11.344;2023-12-22T09:03:47;95195.59;;;4.50;84.41
25855;BME280;13680;49.936;11.344;2023-12-22T09:06:20;95198.34;;;4.59;84.33
25855;BME280;13680;49.936;11.344;2023-12-22T09:08:46;95206.41;;;4.82;83.54
25855;BME280;13680;49.936;11.344;2023-12-22T09:11:12;95207.88;;;5.11;82.09
25855;BME280;13680;49.936;11.344;2023-12-22T09:13:38;95210.81;;;4.50;84.50
25855;BME280;13680;49.936;11.344;2023-12-22T09:16:04;95208.13;;;5.00;82.93
25855;BME280;13680;49.936;11.344;2023-12-22T09:18:31;95214.41;;;4.68;83.19
25855;BME280;13680;49.936;11.344;2023-12-22T09:20:56;95199.56;;;4.89;83.49
25855;BME280;13680;49.936;11.344;2023-12-22T09:23:22;95199.31;;;5.00;82.51
25855;BME280;13680;49.936;11.344;2023-12-22T09:25:47;95192.69;;;5.11;82.00
25855;BME280;13680;49.936;11.344;2023-12-22T09:28:13;95187.91;;;5.22;81.53
25855;BME280;13680;49.936;11.344;2023-12-22T09:30:38;95203.06;;;4.76;83.50
25855;BME280;13680;49.936;11.344;2023-12-22T09:33:05;95194.91;;;5.18;80.89
25855;BME280;13680;49.936;11.344;2023-12-22T09:35:30;95206.50;;;5.13;81.32
25855;BME280;13680;49.936;11.344;2023-12-22T09:37:55;95221.25;;;5.42;80.98
25855;BME280;13680;49.936;11.344;2023-12-22T09:40:21;95219.63;;;5.10;81.55
25855;BME280;13680;49.936;11.344;2023-12-22T09:42:47;95219.25;;;5.48;80.49
25855;BME280;13680;49.936;11.344;2023-12-22T09:45:16;95214.38;;;5.41;80.11
25855;BME280;13680;49.936;11.344;2023-12-22T09:47:43;95192.44;;;5.76;79.01
25855;BME280;13680;49.936;11.344;2023-12-22T09:50:10;95192.38;;;5.35;80.43
25855;BME280;13680;49.936;11.344;2023-12-22T09:52:35;95204.66;;;5.00;81.89
25855;BME280;13680;49.936;11.344;2023-12-22T09:55:02;95212.25;;;5.06;81.87
25855;BME280;13680;49.936;11.344;2023-12-22T09:57:30;95201.47;;;5.12;81.13
25855;BME280;13680;49.936;11.344;2023-12-22T09:59:57;95199.03;;;5.24;81.93
25855;BME280;13680;49.936;11.344;2023-12-22T10:02:25;95207.69;;;5.07;82.41
25855;BME280;13680;49.936;11.344;2023-12-22T10:04:52;95195.16;;;5.30;81.14
25855;BME280;13680;49.936;11.344;2023-12-22T10:07:18;95197.00;;;5.21;81.42
25855;BME280;13680;49.936;11.344;2023-12-22T10:09:46;95191.03;;;5.24;81.22
25855;BME280;13680;49.936;11.344;2023-12-22T10:12:14;95198.50;;;5.36;81.66
25855;BME280;13680;49.936;11.344;2023-12-22T10:14:40;95211.44;;;5.51;80.83
25855;BME280;13680;49.936;11.344;2023-12-22T10:17:06;95214.53;;;5.45;79.87
25855;BME280;13680;49.936;11.344;2023-12-22T10:19:31;95212.59;;;5.59;80.35
25855;BME280;13680;49.936;11.344;2023-12-22T10:21:58;95203.25;;;5.70;80.17
25855;BME280;13680;49.936;11.344;2023-12-22T10:24:43;95208.31;;;5.81;78.37
25855;BME280;13680;49.936;11.344;2023-12-22T10:27:09;95203.84;;;5.67;79.30
25855;BME280;13680;49.936;11.344;2023-12-22T10:29:35;95200.25;;;5.72;79.07
25855;BME280;13680;49.936;11.344;2023-12-22T10:32:04;95197.38;;;5.91;78.53
25855;BME280;13680;49.936;11.344;2023-12-22T10:34:30;95196.69;;;5.85;78.74
25855;BME280;13680;49.936;11.344;2023-12-22T10:36:56;95185.47;;;5.66;79.58
25855;BME280;13680;49.936;11.344;2023-12-22T10:39:21;95177.16;;;5.67;78.97
25855;BME280;13680;49.936;11.344;2023-12-22T10:41:48;95159.22;;;5.50;79.63
25855;BME280;13680;49.936;11.344;2023-12-22T10:44:14;95146.72;;;5.60;80.18
25855;BME280;13680;49.936;11.344;2023-12-22T10:46:40;95137.72;;;5.87;78.37
25855;BME280;13680;49.936;11.344;2023-12-22T10:49:07;95116.69;;;5.77;78.52
25855;BME280;13680;49.936;11.344;2023-12-22T10:51:32;95131.28;;;5.79;78.28
25855;BME280;13680;49.936;11.344;2023-12-22T10:53:58;95135.00;;;5.69;77.14
25855;BME280;13680;49.936;11.344;2023-12-22T10:56:24;95124.47;;;5.64;78.45
25855;BME280;13680;49.936;11.344;2023-12-22T10:58:51;95108.16;;;5.66;78.30
25855;BME280;13680;49.936;11.344;2023-12-22T11:01:17;95119.34;;;5.85;77.88
25855;BME280;13680;49.936;11.344;2023-12-22T11:03:48;95102.25;;;5.86;77.74
25855;BME280;13680;49.936;11.344;2023-12-22T11:06:16;95098.59;;;5.65;79.05
25855;BME280;13680;49.936;11.344;2023-12-22T11:08:43;95100.16;;;5.34;80.42
25855;BME280;13680;49.936;11.344;2023-12-22T11:11:16;95093.03;;;5.44;81.59
25855;BME280;13680;49.936;11.344;2023-12-22T11:13:43;95119.94;;;5.33;82.84
25855;BME280;13680;49.936;11.344;2023-12-22T11:16:09;95100.13;;;5.57;81.97
25855;BME280;13680;49.936;11.344;2023-12-22T11:18:35;95090.75;;;5.68;81.62
25855;BME280;13680;49.936;11.344;2023-12-22T11:21:05;95094.84;;;5.34;84.40
25855;BME280;13680;49.936;11.344;2023-12-22T11:23:31;95089.66;;;5.29;85.97
25855;BME280;13680;49.936;11.344;2023-12-22T11:25:58;95094.56;;;5.45;85.64
25855;BME280;13680;49.936;11.344;2023-12-22T11:28:24;95100.31;;;5.29;87.23
25855;BME280;13680;49.936;11.344;2023-12-22T11:30:51;95097.34;;;5.31;87.58
25855;BME280;13680;49.936;11.344;2023-12-22T11:33:17;95103.59;;;5.26;88.44
25855;BME280;13680;49.936;11.344;2023-12-22T11:35:44;95103.50;;;5.40;89.14
25855;BME280;13680;49.936;11.344;2023-12-22T11:38:11;95094.78;;;5.57;89.00
25855;BME280;13680;49.936;11.344;2023-12-22T11:40:39;95088.53;;;4.99;91.59
25855;BME280;13680;49.936;11.344;2023-12-22T11:43:05;95071.88;;;5.16;92.51
25855;BME280;13680;49.936;11.344;2023-12-22T11:45:32;95075.91;;;5.45;91.20
25855;BME280;13680;49.936;11.344;2023-12-22T11:48:08;95071.88;;;5.16;92.20
25855;BME280;13680;49.936;11.344;2023-12-22T11:50:34;95068.72;;;5.45;91.19
25855;BME280;13680;49.936;11.344;2023-12-22T11:53:19;95061.25;;;5.65;90.46
25855;BME280;13680;49.936;11.344;2023-12-22T11:58:39;95043.16;;;5.44;91.35
25855;BME280;13680;49.936;11.344;2023-12-22T12:01:12;95059.47;;;5.43;92.55
25855;BME280;13680;49.936;11.344;2023-12-22T12:04:02;95051.44;;;5.34;92.27
25855;BME280;13680;49.936;11.344;2023-12-22T12:08:59;95035.69;;;5.55;93.26
25855;BME280;13680;49.936;11.344;2023-12-22T12:14:22;95026.09;;;5.54;93.42
25855;BME280;13680;49.936;11.344;2023-12-22T12:16:48;95017.66;;;5.69;92.81
25855;BME280;13680;49.936;11.344;2023-12-22T12:19:14;95024.88;;;5.78;93.08
25855;BME280;13680;49.936;11.344;2023-12-22T12:21:40;95009.06;;;5.90;91.65
25855;BME280;13680;49.936;11.344;2023-12-22T12:24:05;95003.44;;;6.00;91.85
25855;BME280;13680;49.936;11.344;2023-12-22T12:26:33;95019.69;;;5.72;92.86
25855;BME280;13680;49.936;11.344;2023-12-22T12:28:59;95006.06;;;5.74;93.60
25855;BME280;13680;49.936;11.344;2023-12-22T12:31:35;95002.09;;;5.45;94.58
25855;BME280;13680;49.936;11.344;2023-12-22T12:34:04;94991.16;;;5.90;93.41
25855;BME280;13680;49.936;11.344;2023-12-22T12:36:30;94988.78;;;5.54;94.76
25855;BME280;13680;49.936;11.344;2023-12-22T12:38:58;94987.25;;;5.79;93.74
25855;BME280;13680;49.936;11.344;2023-12-22T12:41:31;94989.97;;;6.05;91.86
25855;BME280;13680;49.936;11.344;2023-12-22T12:43:58;94980.22;;;6.10;92.34
25855;BME280;13680;49.936;11.344;2023-12-22T12:46:23;94974.56;;;5.94;92.03
25855;BME280;13680;49.936;11.344;2023-12-22T12:49:02;94981.09;;;5.61;94.43
25855;BME280;13680;49.936;11.344;2023-12-22T12:51:28;94985.41;;;6.15;92.30
25855;BME280;13680;49.936;11.344;2023-12-22T12:53:55;94987.59;;;6.04;93.04
25855;BME280;13680;49.936;11.344;2023-12-22T12:56:21;94989.63;;;6.16;92.30
25855;BME280;13680;49.936;11.344;2023-12-22T12:58:46;94981.31;;;5.91;92.80
25855;BME280;13680;49.936;11.344;2023-12-22T13:01:12;94961.84;;;5.82;93.93
25855;BME280;13680;49.936;11.344;2023-12-22T13:03:53;94981.16;;;5.96;93.61
25855;BME280;13680;49.936;11.344;2023-12-22T13:06:19;94970.34;;;6.01;93.18